Time;durP1;ratioP1;P1;durP2;ratioP2;P2;SDS_P1;SDS_P2;PMS_P1;PMS_P2;Temp;Humidity;BMP_temperature;BMP_pressure;BME280_temperature;BME280_humidity;BME280_pressure;Samples;Min_cycle;Max_cycle;Signal;HPM_P1;HPM_P2
2022/07/31 00:02:12;;;;;;;5.15;4.10;;;;;;;;;;4820469;29;20050;-81
2022/07/31 00:04:38;;;;;;;8.10;4.45;;;;;;;;;;4825358;29;20129;-81
2022/07/31 00:07:04;;;;;;;7.38;4.28;;;;;;;;;;4820171;29;20133;-81
2022/07/31 00:09:30;;;;;;;7.22;4.30;;;;;;;;;;4819990;29;20042;-80
2022/07/31 00:12:00;;;;;;;5.97;4.03;;;;;;;;;;4823120;29;20134;-81
2022/07/31 00:14:26;;;;;;;7.28;4.47;;;;;;;;;;4818497;29;20042;-80
2022/07/31 00:16:52;;;;;;;9.75;3.65;;;;;;;;;;4821901;29;21437;-81
2022/07/31 00:19:18;;;;;;;6.45;3.92;;;;;;;;;;4826534;29;20050;-81
2022/07/31 00:21:47;;;;;;;11.15;4.38;;;;;;;;;;4831704;29;20528;-81
2022/07/31 00:24:13;;;;;;;8.82;5.57;;;;;;;;;;4815002;29;20508;-83
2022/07/31 00:26:39;;;;;;;7.15;4.85;;;;;;;;;;4821665;29;20046;-81
2022/07/31 00:29:06;;;;;;;9.30;4.78;;;;;;;;;;4830839;29;20086;-81
2022/07/31 00:31:32;;;;;;;20.02;5.22;;;;;;;;;;4831285;29;20086;-80
2022/07/31 00:33:58;;;;;;;10.02;5.28;;;;;;;;;;4832485;29;20522;-81
2022/07/31 00:36:24;;;;;;;7.70;4.65;;;;;;;;;;4830050;29;20396;-81
2022/07/31 00:38:50;;;;;;;7.60;4.68;;;;;;;;;;4828670;29;20048;-81
2022/07/31 00:41:16;;;;;;;6.40;4.55;;;;;;;;;;4832843;29;20053;-81
2022/07/31 00:43:42;;;;;;;6.68;4.55;;;;;;;;;;4835500;29;20077;-80
2022/07/31 00:46:08;;;;;;;5.60;4.53;;;;;;;;;;4835016;29;20042;-82
2022/07/31 00:48:34;;;;;;;6.32;4.60;;;;;;;;;;4833686;29;20121;-81
2022/07/31 00:51:00;;;;;;;5.00;4.50;;;;;;;;;;4830424;29;20038;-81
2022/07/31 00:53:26;;;;;;;7.25;4.60;;;;;;;;;;4828403;29;20202;-81
2022/07/31 00:55:52;;;;;;;7.35;4.20;;;;;;;;;;4838702;29;20065;-81
2022/07/31 00:58:28;;;;;;;5.88;4.15;;;;;;;;;;4812576;29;20202;-81
2022/07/31 01:00:57;;;;;;;5.40;4.60;;;;;;;;;;4830656;29;20041;-81
2022/07/31 01:03:23;;;;;;;7.07;4.38;;;;;;;;;;4831247;29;20038;-81
2022/07/31 01:05:49;;;;;;;6.93;4.25;;;;;;;;;;4837322;29;20049;-81
2022/07/31 01:08:15;;;;;;;8.00;4.47;;;;;;;;;;4833824;29;20503;-81
2022/07/31 01:10:44;;;;;;;8.85;4.53;;;;;;;;;;4826785;29;20049;-81
2022/07/31 01:13:14;;;;;;;9.43;4.55;;;;;;;;;;4827271;29;20449;-81
2022/07/31 01:15:41;;;;;;;8.13;4.95;;;;;;;;;;4820259;29;20064;-80
2022/07/31 01:18:07;;;;;;;8.68;5.07;;;;;;;;;;4831508;29;20507;-81
2022/07/31 01:20:34;;;;;;;9.32;4.70;;;;;;;;;;4827014;29;20042;-81
2022/07/31 01:23:13;;;;;;;5.88;4.93;;;;;;;;;;4833832;29;20471;-81
2022/07/31 01:25:58;;;;;;;5.15;4.13;;;;;;;;;;4825792;29;20042;-81
2022/07/31 01:28:39;;;;;;;7.45;4.65;;;;;;;;;;4823933;29;20511;-82
2022/07/31 01:31:10;;;;;;;10.48;4.20;;;;;;;;;;4816845;29;20403;-81
2022/07/31 01:33:45;;;;;;;9.20;4.40;;;;;;;;;;4822487;29;20057;-81
2022/07/31 01:36:16;;;;;;;5.13;4.63;;;;;;;;;;4816794;29;20049;-81
2022/07/31 01:38:44;;;;;;;6.75;4.70;;;;;;;;;;4826859;29;20103;-80
2022/07/31 01:41:11;;;;;;;7.28;4.53;;;;;;;;;;4827998;29;20038;-81
2022/07/31 01:43:41;;;;;;;9.10;4.45;;;;;;;;;;4826397;29;20038;-80
2022/07/31 01:46:14;;;;;;;5.55;4.10;;;;;;;;;;4817369;29;20054;-82
2022/07/31 01:48:41;;;;;;;7.30;4.07;;;;;;;;;;4819638;29;20526;-82
2022/07/31 01:51:07;;;;;;;7.10;3.92;;;;;;;;;;4819374;29;20145;-82
2022/07/31 01:53:35;;;;;;;6.07;4.05;;;;;;;;;;4822992;29;20502;-82
2022/07/31 01:56:01;;;;;;;7.35;4.28;;;;;;;;;;4820477;29;20058;-82
2022/07/31 01:58:29;;;;;;;7.28;4.15;;;;;;;;;;4812834;29;20217;-82
2022/07/31 02:00:57;;;;;;;6.70;4.10;;;;;;;;;;4813626;29;20043;-81
2022/07/31 02:03:24;;;;;;;12.93;4.07;;;;;;;;;;4824368;29;20161;-82
2022/07/31 02:05:50;;;;;;;5.65;4.15;;;;;;;;;;4822676;29;20034;-82
2022/07/31 02:08:17;;;;;;;7.68;4.97;;;;;;;;;;4816964;29;20507;-83
2022/07/31 02:10:50;;;;;;;9.25;4.70;;;;;;;;;;4799234;29;20496;-82
2022/07/31 02:13:16;;;;;;;8.02;4.65;;;;;;;;;;4823702;29;20520;-83
2022/07/31 02:15:43;;;;;;;6.93;4.72;;;;;;;;;;4816170;29;20038;-83
2022/07/31 02:18:09;;;;;;;9.15;4.50;;;;;;;;;;4824321;29;20488;-82
2022/07/31 02:20:36;;;;;;;5.78;4.38;;;;;;;;;;4818327;29;20045;-82
2022/07/31 02:23:02;;;;;;;10.02;5.07;;;;;;;;;;4812954;29;20053;-82
2022/07/31 02:25:29;;;;;;;6.20;4.63;;;;;;;;;;4820613;29;20042;-81
2022/07/31 02:27:56;;;;;;;11.52;5.03;;;;;;;;;;4820688;29;20061;-81
2022/07/31 02:30:23;;;;;;;9.18;4.45;;;;;;;;;;4824025;29;20065;-82
2022/07/31 02:32:55;;;;;;;6.60;4.40;;;;;;;;;;4818114;29;20042;-81
2022/07/31 02:35:21;;;;;;;5.47;4.10;;;;;;;;;;4823449;29;20136;-81
2022/07/31 02:37:50;;;;;;;7.68;4.22;;;;;;;;;;4799645;29;20047;-82
2022/07/31 02:40:20;;;;;;;9.38;4.20;;;;;;;;;;4814477;29;20042;-82
2022/07/31 02:42:46;;;;;;;10.48;4.63;;;;;;;;;;4824061;29;20041;-82
2022/07/31 02:45:13;;;;;;;7.15;5.00;;;;;;;;;;4818676;29;20518;-82
2022/07/31 02:47:39;;;;;;;10.82;4.75;;;;;;;;;;4819500;29;20094;-82
2022/07/31 02:50:06;;;;;;;7.40;4.45;;;;;;;;;;4806497;29;20162;-82
2022/07/31 02:52:33;;;;;;;9.48;4.50;;;;;;;;;;4803042;29;20413;-80
2022/07/31 02:54:59;;;;;;;9.80;4.70;;;;;;;;;;4804947;29;20046;-81
2022/07/31 02:57:25;;;;;;;6.65;4.43;;;;;;;;;;4818528;29;20046;-82
2022/07/31 02:59:59;;;;;;;7.10;4.40;;;;;;;;;;4822364;29;20050;-81
2022/07/31 03:02:25;;;;;;;;;;;;;;;;;;4804351;29;20049;-82
2022/07/31 03:04:51;;;;;;;6.25;4.55;;;;;;;;;;4816539;29;19929;-80
2022/07/31 03:07:17;;;;;;;6.95;4.78;;;;;;;;;;4815064;29;20066;-82
2022/07/31 03:09:43;;;;;;;6.93;4.90;;;;;;;;;;4824083;29;20124;-81
2022/07/31 03:12:13;;;;;;;12.02;5.10;;;;;;;;;;4822309;29;20038;-81
2022/07/31 03:14:39;;;;;;;7.75;5.13;;;;;;;;;;4825373;29;20053;-81
2022/07/31 03:17:06;;;;;;;11.05;4.30;;;;;;;;;;4825545;29;20133;-81
2022/07/31 03:19:32;;;;;;;7.60;4.03;;;;;;;;;;4816624;29;20085;-82
2022/07/31 03:22:01;;;;;;;6.97;5.22;;;;;;;;;;4827069;29;20487;-82
2022/07/31 03:24:31;;;;;;;5.93;4.75;;;;;;;;;;4820154;29;20050;-82
2022/07/31 03:26:57;;;;;;;7.43;4.45;;;;;;;;;;4823889;29;20045;-82
2022/07/31 03:29:23;;;;;;;9.35;4.82;;;;;;;;;;4806550;29;20092;-82
2022/07/31 03:31:49;;;;;;;11.60;4.93;;;;;;;;;;4811870;29;20054;-82
2022/07/31 03:34:21;;;;;;;7.90;4.50;;;;;;;;;;4822241;29;20047;-81
2022/07/31 03:36:47;;;;;;;8.23;4.38;;;;;;;;;;4815959;29;20042;-83
2022/07/31 03:39:15;;;;;;;6.80;4.18;;;;;;;;;;4806325;29;20407;-82
2022/07/31 03:41:41;;;;;;;6.55;4.55;;;;;;;;;;4825302;29;20049;-81
2022/07/31 03:44:07;;;;;;;6.30;4.53;;;;;;;;;;4824413;29;20045;-83
2022/07/31 03:46:34;;;;;;;9.35;4.72;;;;;;;;;;4817161;29;20562;-81
2022/07/31 03:49:03;;;;;;;7.20;4.72;;;;;;;;;;4825320;29;20407;-83
2022/07/31 03:51:29;;;;;;;11.77;4.30;;;;;;;;;;4821975;29;20546;-82
2022/07/31 03:53:55;;;;;;;14.23;4.90;;;;;;;;;;4824370;29;20041;-81
2022/07/31 03:56:22;;;;;;;6.97;5.13;;;;;;;;;;4821502;29;20640;-81
2022/07/31 03:58:48;;;;;;;11.90;4.70;;;;;;;;;;4820918;29;20050;-81
2022/07/31 04:01:15;;;;;;;6.45;4.40;;;;;;;;;;4819266;29;20053;-82
2022/07/31 04:03:41;;;;;;;10.70;4.90;;;;;;;;;;4823495;29;20396;-81
2022/07/31 04:06:07;;;;;;;5.97;4.60;;;;;;;;;;4821691;29;20507;-81
2022/07/31 04:08:34;;;;;;;6.95;5.32;;;;;;;;;;4801158;29;20526;-82
2022/07/31 04:11:00;;;;;;;7.30;5.00;;;;;;;;;;4819288;29;20054;-82
2022/07/31 04:13:32;;;;;;;8.25;4.80;;;;;;;;;;4825912;29;20042;-81
2022/07/31 04:15:58;;;;;;;7.88;5.00;;;;;;;;;;4820528;29;20140;-81
2022/07/31 04:18:24;;;;;;;6.25;4.85;;;;;;;;;;4825171;29;20042;-81
2022/07/31 04:20:50;;;;;;;4.82;4.32;;;;;;;;;;4827210;29;20041;-83
2022/07/31 04:23:16;;;;;;;9.50;4.72;;;;;;;;;;4806239;29;20046;-82
2022/07/31 04:25:42;;;;;;;6.47;4.68;;;;;;;;;;4805369;29;20133;-81
2022/07/31 04:28:08;;;;;;;6.35;4.20;;;;;;;;;;4829008;29;20088;-80
2022/07/31 04:30:34;;;;;;;6.55;4.00;;;;;;;;;;4807459;29;20110;-81
2022/07/31 04:33:00;;;;;;;5.03;4.40;;;;;;;;;;4823375;29;20480;-80
2022/07/31 04:35:29;;;;;;;8.63;4.40;;;;;;;;;;4822076;29;20486;-81
2022/07/31 04:37:55;;;;;;;8.38;4.43;;;;;;;;;;4822453;29;20170;-80
2022/07/31 04:40:33;;;;;;;8.57;4.85;;;;;;;;;;4775575;29;20075;-81
2022/07/31 04:42:59;;;;;;;7.75;4.32;;;;;;;;;;4790557;29;20077;-81
2022/07/31 04:45:28;;;;;;;7.00;4.40;;;;;;;;;;4778385;29;20098;-81
2022/07/31 04:47:54;;;;;;;7.60;4.60;;;;;;;;;;4790290;29;20047;-81
2022/07/31 04:50:23;;;;;;;7.85;4.82;;;;;;;;;;4767749;29;20506;-81
2022/07/31 04:52:49;;;;;;;8.35;4.82;;;;;;;;;;4785577;29;20053;-80
2022/07/31 04:55:15;;;;;;;4.93;4.40;;;;;;;;;;4776926;29;20074;-80
2022/07/31 04:57:41;;;;;;;7.90;4.53;;;;;;;;;;4788997;29;20125;-80
2022/07/31 05:00:09;;;;;;;7.88;4.70;;;;;;;;;;4790706;29;20066;-80
2022/07/31 05:02:35;;;;;;;7.78;4.65;;;;;;;;;;4787394;29;20056;-81
2022/07/31 05:05:01;;;;;;;8.57;4.47;;;;;;;;;;4791453;29;20066;-80
2022/07/31 05:07:27;;;;;;;6.55;5.20;;;;;;;;;;4787323;29;20451;-80
2022/07/31 05:10:03;;;;;;;11.10;5.20;;;;;;;;;;4786500;29;20562;-81
2022/07/31 05:12:29;;;;;;;10.05;5.28;;;;;;;;;;4820159;29;20061;-81
2022/07/31 05:14:55;;;;;;;7.32;4.88;;;;;;;;;;4818730;29;20053;-81
2022/07/31 05:17:26;;;;;;;9.10;5.43;;;;;;;;;;4824741;29;20033;-82
2022/07/31 05:19:58;;;;;;;5.13;4.55;;;;;;;;;;4799578;29;20093;-81
2022/07/31 05:22:24;;;;;;;12.00;5.18;;;;;;;;;;4821548;29;20530;-82
2022/07/31 05:24:51;;;;;;;12.55;5.18;;;;;;;;;;4822305;29;20041;-81
2022/07/31 05:27:38;;;;;;;8.50;5.65;;;;;;;;;;4813109;29;20133;-80
2022/07/31 05:30:06;;;;;;;7.40;4.80;;;;;;;;;;4820856;29;20049;-79
2022/07/31 05:32:32;;;;;;;5.32;4.75;;;;;;;;;;4819267;29;20042;-82
2022/07/31 05:34:58;;;;;;;12.27;5.68;;;;;;;;;;4800557;29;20051;-80
2022/07/31 05:37:24;;;;;;;7.78;5.28;;;;;;;;;;4805769;29;20053;-81
2022/07/31 05:39:51;;;;;;;6.63;4.85;;;;;;;;;;4821283;29;20161;-80
2022/07/31 05:42:19;;;;;;;9.13;4.80;;;;;;;;;;4819982;29;20054;-79
2022/07/31 05:44:45;;;;;;;10.07;5.00;;;;;;;;;;4806270;29;20054;-81
2022/07/31 05:47:11;;;;;;;7.82;5.32;;;;;;;;;;4795556;29;20111;-80
2022/07/31 05:49:37;;;;;;;9.02;5.30;;;;;;;;;;4823942;29;20071;-80
2022/07/31 05:52:03;;;;;;;7.85;5.28;;;;;;;;;;4804254;29;20088;-80
2022/07/31 05:54:31;;;;;;;9.20;4.68;;;;;;;;;;4825324;29;20046;-81
2022/07/31 05:56:57;;;;;;;14.65;5.25;;;;;;;;;;4836685;29;20045;-80
2022/07/31 06:02:46;;;;;;;11.45;5.25;;;;;;;;;;4825774;29;20126;-81
2022/07/31 06:05:12;;;;;;;8.02;5.10;;;;;;;;;;4801398;29;20046;-80
2022/07/31 06:07:39;;;;;;;8.52;5.13;;;;;;;;;;4826639;29;20119;-83
2022/07/31 06:10:05;;;;;;;11.50;4.97;;;;;;;;;;4820083;29;20049;-82
2022/07/31 06:12:41;;;;;;;10.05;5.13;;;;;;;;;;4824653;29;20534;-81
2022/07/31 06:15:08;;;;;;;11.18;5.53;;;;;;;;;;4823366;29;20146;-81
2022/07/31 06:17:41;;;;;;;9.00;4.90;;;;;;;;;;4823515;29;20126;-81
2022/07/31 06:20:07;;;;;;;8.20;5.05;;;;;;;;;;4818818;29;20154;-81
2022/07/31 06:22:38;;;;;;;11.15;5.53;;;;;;;;;;4811078;29;20045;-80
2022/07/31 06:25:04;;;;;;;8.25;5.22;;;;;;;;;;4821607;29;20046;-80
2022/07/31 06:27:34;;;;;;;8.00;4.45;;;;;;;;;;4818067;29;20061;-79
2022/07/31 06:30:26;;;;;;;14.73;5.30;;;19.80;99.90;;;;;;4824198;29;20062;-80
2022/07/31 06:32:52;;;;;;;8.27;4.57;;;;;;;;;;4818815;29;20637;-80
2022/07/31 06:35:18;;;;;;;10.13;4.57;;;;;;;;;;4819009;29;20061;-81
2022/07/31 06:37:57;;;;;;;8.50;4.50;;;;;;;;;;4823139;29;20070;-82
2022/07/31 06:40:29;;;;;;;8.15;4.97;;;;;;;;;;4825201;29;20053;-81
2022/07/31 06:42:59;;;;;;;7.93;4.40;;;;;;;;;;4818197;29;20112;-82
2022/07/31 06:45:40;;;;;;;5.15;3.78;;;;;;;;;;4807510;29;20034;-83
2022/07/31 06:48:13;;;;;;;6.43;4.15;;;;;;;;;;4823863;29;20089;-83
2022/07/31 06:50:51;;;;;;;6.47;3.97;;;;;;;;;;4827217;29;20129;-82
2022/07/31 06:53:18;;;;;;;7.35;3.63;;;;;;;;;;4824925;29;20061;-81
2022/07/31 06:55:44;;;;;;;5.78;3.58;;;;;;;;;;4823667;29;20050;-81
2022/07/31 06:58:10;;;;;;;5.15;3.85;;;;;;;;;;4823897;29;20038;-82
2022/07/31 07:00:39;;;;;;;5.15;3.78;;;;;;;;;;4812246;29;20138;-81
2022/07/31 07:03:05;;;;;;;6.28;3.80;;;;;;;;;;4792176;29;20112;-81
2022/07/31 07:05:31;;;;;;;4.80;3.63;;;;;;;;;;4813008;29;20222;-81
2022/07/31 07:08:03;;;;;;;9.27;3.75;;;;;;;;;;4824352;29;20054;-81
2022/07/31 07:10:30;;;;;;;4.97;3.55;;;;;;;;;;4819898;29;20058;-80
2022/07/31 07:13:02;;;;;;;5.45;3.58;;;;;;;;;;4807300;29;20076;-81
2022/07/31 07:15:28;;;;;;;8.50;3.75;;;;;;;;;;4822376;29;20073;-82
2022/07/31 07:17:54;;;;;;;5.70;3.60;;;;;;;;;;4825159;29;20038;-81
2022/07/31 07:20:20;;;;;;;6.35;3.90;;;;;;;;;;4822443;29;20049;-81
2022/07/31 07:22:52;;;;;;;6.13;3.70;;;;;;;;;;4804839;29;20078;-80
2022/07/31 07:25:49;;;;;;;5.93;3.88;;;;;;;;;;4803429;29;20054;-79
2022/07/31 07:28:15;;;;;;;6.30;3.60;;;;;;;;;;4816395;29;20496;-81
2022/07/31 07:30:48;;;;;;;5.90;3.90;;;;;;;;;;4818605;29;20096;-80
2022/07/31 07:33:14;;;;;;;9.45;3.22;;;;;;;;;;4820775;29;20574;-81
2022/07/31 07:35:55;;;;;;;6.90;4.05;;;;;;;;;;4798561;29;20057;-80
2022/07/31 07:38:21;;;;;;;6.43;3.30;;;;;;;;;;4818333;29;20061;-82
2022/07/31 07:40:47;;;;;;;9.02;3.92;;;;;;;;;;4818802;29;20049;-81
2022/07/31 07:43:13;;;;;;;6.05;4.28;;;;;;;;;;4818803;29;20043;-80
2022/07/31 07:45:45;;;;;;;6.75;3.88;;;;;;;;;;4819926;29;20043;-80
2022/07/31 07:48:13;;;;;;;7.30;3.60;;;;;;;;;;4819419;29;20095;-82
2022/07/31 07:50:39;;;;;;;8.63;3.88;;;;;;;;;;4807096;29;20081;-80
2022/07/31 07:53:17;;;;;;;5.97;4.03;;;;;;;;;;4797582;29;20077;-81
2022/07/31 07:55:43;;;;;;;5.63;4.28;;;;;;;;;;4790461;29;20058;-81
2022/07/31 07:58:22;;;;;;;;;;;;;;;;;;;;;
2022/07/31 08:00:51;;;;;;;4.45;3.80;;;;;;;;;;4782580;29;20144;-80
2022/07/31 08:03:23;;;;;;;6.15;4.13;;;;;;;;;;4795975;29;20071;-78
2022/07/31 08:06:05;;;;;;;5.45;3.83;;;;;;;;;;4788028;29;20212;-79
2022/07/31 08:08:52;;;;;;;6.72;4.10;;;;;;;;;;4758431;29;20062;-79
2022/07/31 08:11:29;;;;;;;4.53;3.80;;;;;;;;;;4794803;29;20084;-81
2022/07/31 08:13:55;;;;;;;5.07;3.90;;;;;;;;;;4789375;29;20107;-79
2022/07/31 08:16:22;;;;;;;7.53;4.30;;;;;;;;;;4755122;29;20166;-78
2022/07/31 08:18:49;;;;;;;7.75;4.13;;;;;;;;;;4776211;29;20093;-78
2022/07/31 08:21:15;;;;;;;6.63;4.40;;;;;;;;;;4789782;29;20086;-80
2022/07/31 08:23:41;;;;;;;8.13;4.28;;;;;;;;;;4800738;29;20404;-80
2022/07/31 08:26:07;;;;;;;10.57;4.55;;;;;;;;;;4819208;29;20046;-81
2022/07/31 08:28:34;;;;;;;7.78;3.72;;;;;;;;;;4825030;29;20516;-83
2022/07/31 08:31:01;;;;;;;8.90;4.18;;;;;;;;;;4819504;29;20059;-79
2022/07/31 08:33:33;;;;;;;8.52;4.18;;;;;;;;;;4820556;29;20093;-78
2022/07/31 08:36:00;;;;;;;7.65;4.53;;;;;;;;;;4820209;29;20492;-79
2022/07/31 08:38:27;;;;;;;6.78;4.20;;;;;;;;;;4801765;29;20092;-84
2022/07/31 08:41:01;;;;;;;5.07;4.35;;;;;;;;;;4820103;29;20578;-79
2022/07/31 08:43:40;;;;;;;7.20;4.15;;;;;;;;;;4818655;29;20230;-80
2022/07/31 08:46:07;;;;;;;6.15;3.92;;;;;;;;;;4812886;29;20528;-81
2022/07/31 08:48:34;;;;;;;7.10;4.30;;;;;;;;;;4797186;29;20061;-84
2022/07/31 08:51:13;;;;;;;4.60;4.15;;;;;;;;;;4813112;29;20054;-80
2022/07/31 08:53:39;;;;;;;7.40;4.50;;;;;;;;;;4819115;29;20062;-82
2022/07/31 08:56:05;;;;;;;8.95;4.50;;;;;;;;;;4811368;29;20043;-80
2022/07/31 08:58:32;;;;;;;9.27;4.45;;;;;;;;;;4812925;29;20042;-81
2022/07/31 09:00:59;;;;;;;5.53;4.50;;;;;;;;;;4806311;29;20079;-83
2022/07/31 09:03:40;;;;;;;8.43;5.18;;;;;;;;;;4813938;29;20074;-80
2022/07/31 09:06:06;;;;;;;8.75;5.07;;;;;;;;;;4840848;29;20050;-80
2022/07/31 09:08:33;;;;;;;6.93;5.53;;;;;;;;;;4818531;29;20110;-83
2022/07/31 09:11:12;;;;;;;10.98;5.65;;;;;;;;;;4809743;29;20055;-83
2022/07/31 09:13:41;;;;;;;11.27;5.57;;;;;;;;;;4771208;29;20058;-81
2022/07/31 09:16:10;;;;;;;6.45;5.70;;;;;;;;;;4790171;29;20047;-82
2022/07/31 09:18:36;;;;;;;9.70;5.57;;;;;;;;;;4797754;29;20059;-81
2022/07/31 09:21:09;;;;;;;10.90;6.10;;;;;;;;;;4780506;29;20187;-78
2022/07/31 09:23:45;;;;;;;7.63;5.55;;;;;;;;;;4796559;29;20145;-84
2022/07/31 09:26:14;;;;;;;12.10;7.03;;;;;;;;;;4797495;29;20273;-81
2022/07/31 09:28:41;;;;;;;10.23;7.20;;;;;;;;;;4807591;29;20125;-82
2022/07/31 09:31:14;;;;;;;8.57;6.57;;;;;;;;;;4812379;29;20101;-83
2022/07/31 09:33:44;;;;;;;7.60;6.68;;;;;;;;;;4804879;29;20091;-83
2022/07/31 09:36:10;;;;;;;12.52;7.43;;;;;;;;;;4803465;29;20508;-85
2022/07/31 09:38:38;;;;;;;13.50;8.38;;;;;;;;;;4790537;29;20049;-80
2022/07/31 09:41:09;;;;;;;12.13;8.30;;;;;;;;;;4790950;29;20055;-80
2022/07/31 09:43:36;;;;;;;12.50;8.85;;;;;;;;;;4811229;29;20547;-83
2022/07/31 09:46:06;;;;;;;19.65;9.00;;;;;;;;;;4817430;29;20202;-83
2022/07/31 09:48:33;;;;;;;10.65;9.43;;;;;;;;;;4809170;29;20525;-82
2022/07/31 09:51:01;;;;;;;13.32;9.43;;;;;;;;;;4808414;29;20054;-82
2022/07/31 09:53:27;;;;;;;13.63;9.52;;;;;;;;;;4803728;29;20123;-83
2022/07/31 09:55:54;;;;;;;12.77;9.55;;;;;;;;;;4807399;29;20094;-83
2022/07/31 09:58:21;;;;;;;13.68;9.98;;;;;;;;;;4792981;29;20080;-83
2022/07/31 10:01:06;;;;;;;11.85;9.63;;;;;;;;;;4783203;29;20519;-84
2022/07/31 10:03:37;;;;;;;13.40;10.90;;;;;;;;;;4819495;29;20046;-82
2022/07/31 10:06:19;;;;;;;14.10;11.30;;;;;;;;;;4818793;29;20400;-86
2022/07/31 10:08:49;;;;;;;11.25;10.00;;;;;;;;;;4818796;29;20129;-85
2022/07/31 10:11:18;;;;;;;12.15;9.90;;;;;;;;;;4826201;29;20934;-80
2022/07/31 10:13:53;;;;;;;17.95;10.73;;;;;;;;;;4822249;29;20679;-84
2022/07/31 10:16:29;;;;;;;12.10;9.98;;;;;;;;;;4845511;29;20042;-84
2022/07/31 10:22:00;;;;;;;14.45;10.45;;;;;;;;;;4837220;29;20050;-83
2022/07/31 10:24:53;;;;;;;13.70;12.10;;;;;;;;;;4841616;29;20038;-84
2022/07/31 10:27:20;;;;;;;13.52;10.88;;;;;;;;;;4841619;29;20052;-85
2022/07/31 10:29:47;;;;;;;14.77;10.63;;;;;;;;;;4845465;29;20046;-83
2022/07/31 10:32:32;;;;;;;14.20;11.18;;;;;;;;;;4861191;29;20042;-81
2022/07/31 10:35:05;;;;;;;15.00;12.68;;;;;;;;;;4843450;29;20068;-85
2022/07/31 10:37:43;;;;;;;17.58;13.48;;;;;;;;;;4843643;29;20037;-85
2022/07/31 10:40:23;;;;;;;18.95;14.18;;;;;;;;;;4860267;29;20049;-85
2022/07/31 10:42:50;;;;;;;23.92;14.48;;;;;;;;;;4833755;29;20065;-82
2022/07/31 10:45:18;;;;;;;18.90;13.27;;;;;;;;;;4823338;29;20056;-83
2022/07/31 10:47:58;;;;;;;20.83;14.02;;;;;;;;;;4828667;29;20100;-79
2022/07/31 10:50:25;;;;;;;16.73;12.30;;;;;;;;;;4848449;29;20414;-80
2022/07/31 10:52:51;;;;;;;18.10;13.32;;;;;;;;;;4838510;29;20040;-81
2022/07/31 10:55:21;;;;;;;16.95;13.88;;;;;;;;;;4854966;29;20058;-84
2022/07/31 10:57:47;;;;;;;18.15;15.05;;;;;;;;;;4843918;29;20125;-86
2022/07/31 11:00:16;;;;;;;23.05;15.55;;;;;;;;;;4846247;29;20525;-86
2022/07/31 11:02:42;;;;;;;20.48;14.70;;;;;;;;;;4843447;29;20104;-84
2022/07/31 11:05:28;;;;;;;16.25;14.55;;;;;;;;;;4839230;29;20049;-80
2022/07/31 11:08:02;;;;;;;20.55;17.58;;;;;;;;;;4821425;29;20568;-84
2022/07/31 11:10:28;;;;;;;23.10;17.40;;;;;;;;;;4839775;29;20053;-83
2022/07/31 11:13:32;;;;;;;18.65;16.70;;;;;;;;;;4842094;29;20536;-80
2022/07/31 11:16:05;;;;;;;20.85;17.02;;;;;;;;;;4832852;29;20061;-86
2022/07/31 11:21:39;;;;;;;24.02;16.92;;;;;;;;;;4824670;29;20068;-77
2022/07/31 11:24:15;;;;;;;27.92;17.92;;;;;;;;;;4823401;29;20129;-77
2022/07/31 11:26:42;;;;;;;18.15;16.30;;;;;;;;;;4837615;29;20132;-80
2022/07/31 11:29:10;;;;;;;24.55;17.85;;;;;;;;;;4839307;29;20057;-82
2022/07/31 11:31:36;;;;;;;22.23;18.85;;;;;;;;;;4837294;29;20046;-79
2022/07/31 11:34:03;;;;;;;21.73;19.23;;;;;;;;;;4838474;29;20046;-83
2022/07/31 11:36:29;;;;;;;25.40;22.50;;;;;;;;;;4837693;29;20358;-82
2022/07/31 11:38:55;;;;;;;24.08;20.90;;;;;;;;;;4837379;29;21465;-80
2022/07/31 11:41:26;;;;;;;26.80;21.52;;;;;;;;;;4821728;29;20472;-81
2022/07/31 11:43:54;;;;;;;23.80;19.52;;;;;;;;;;4837156;29;20061;-83
2022/07/31 11:46:25;;;;;;;25.27;19.05;;;;;;;;;;4837581;29;20057;-81
2022/07/31 11:48:51;;;;;;;23.67;19.80;;;;;;;;;;4835721;29;20056;-78
2022/07/31 11:51:18;;;;;;;28.60;22.27;;;;;;;;;;4786400;29;20096;-80
2022/07/31 11:53:44;;;;;;;30.95;24.08;;;;;;;;;;4847455;29;20479;-80
2022/07/31 11:56:11;;;;;;;28.23;23.73;;;;;;;;;;4808594;29;20084;-81
2022/07/31 11:58:40;;;;;;;32.67;26.85;;;;;;;;;;4837151;29;20106;-79
2022/07/31 12:01:08;;;;;;;31.58;27.27;;;;;;;;;;4837014;29;20101;-85
2022/07/31 12:03:36;;;;;;;29.30;25.98;;;;;;;;;;4825875;29;20042;-80
2022/07/31 12:06:09;;;;;;;32.53;27.48;;;;;;;;;;4838757;29;20518;-82
2022/07/31 12:08:35;;;;;;;31.88;26.40;;;;;;;;;;4830580;29;20506;-80
2022/07/31 12:11:03;;;;;;;37.70;28.25;;;;;;;;;;4835377;29;20044;-81
2022/07/31 12:13:29;;;;;;;34.42;26.98;;;;;;;;;;4839464;29;20054;-82
2022/07/31 12:15:56;;;;;;;32.08;26.45;;;;;;;;;;4834800;29;20486;-78
2022/07/31 12:18:23;;;;;;;27.60;24.67;;;;;;;;;;4823772;29;20486;-80
2022/07/31 12:20:53;;;;;;;29.83;24.05;;;;;;;;;;4838274;29;20098;-81
2022/07/31 12:23:19;;;;;;;27.13;23.40;;;;;;;;;;4821517;29;20491;-80
2022/07/31 12:25:45;;;;;;;32.33;24.23;;;;;;;;;;4838722;29;20085;-82
2022/07/31 12:28:15;;;;;;;20.92;18.70;;;;;;;;;;4834659;29;20062;-80
2022/07/31 12:30:42;;;;;;;27.58;19.83;;;;;;;;;;4803777;29;20093;-79
2022/07/31 12:33:09;;;;;;;30.60;22.52;;;;;;;;;;4820442;29;20046;-80
2022/07/31 12:35:36;;;;;;;28.95;23.25;;;;;;;;;;4820824;29;20539;-84
2022/07/31 12:38:02;;;;;;;35.70;25.70;;;;;;;;;;4809733;29;20057;-78
2022/07/31 12:40:28;;;;;;;34.90;28.00;;;;;;;;;;4839009;29;20046;-83
2022/07/31 12:43:00;;;;;;;35.95;28.48;;;;;;;;;;4817448;29;20047;-79
2022/07/31 12:45:37;;;;;;;37.05;28.88;;;;;;;;;;4810111;29;20641;-82
2022/07/31 12:48:04;;;;;;;51.28;34.95;;;;;;;;;;4797534;29;20046;-82
2022/07/31 12:50:30;;;;;;;44.83;31.40;;;;;;;;;;4819756;29;20142;-80
2022/07/31 12:52:59;;;;;;;38.92;30.50;;;;;;;;;;4802093;29;20067;-85
2022/07/31 12:55:26;;;;;;;48.15;33.90;;;;;;;;;;4802706;29;20066;-79
2022/07/31 12:57:53;;;;;;;56.83;38.08;;;;;;;;;;4816205;29;20051;-82
2022/07/31 13:00:21;;;;;;;49.58;37.08;;;;;;;;;;4801597;29;20054;-78
2022/07/31 13:02:47;;;;;;;52.50;38.10;;;;;;;;;;4802274;29;20060;-83
2022/07/31 13:05:14;;;;;;;53.38;37.90;;;;;;;;;;4818403;29;20086;-82
2022/07/31 13:07:40;;;;;;;56.33;39.25;;;;;;;;;;4802474;29;20474;-80
2022/07/31 13:10:07;;;;;;;57.05;40.30;;;;;;;;;;4823383;29;20050;-83
2022/07/31 13:12:33;;;;;;;49.88;37.17;;;;;;;;;;4805915;29;20137;-79
2022/07/31 13:15:00;;;;;;;58.42;42.20;;;;;;;;;;4825106;29;20077;-79
2022/07/31 13:17:27;;;;;;;50.58;38.10;;;;;;;;;;4815144;29;20042;-79
2022/07/31 13:19:53;;;;;;;50.20;38.03;;;;;;;;;;4813940;29;20567;-80
2022/07/31 13:22:19;;;;;;;51.75;36.63;;;;;;;;;;4806888;29;20049;-84
2022/07/31 13:25:01;;;;;;;49.38;37.13;;;;;;;;;;4810836;29;20046;-82
2022/07/31 13:27:27;;;;;;;46.33;34.13;;;;;;;;;;4823169;29;20149;-78
2022/07/31 13:29:53;;;;;;;42.65;35.00;;;;;;;;;;4820956;29;20065;-81
2022/07/31 13:32:19;;;;;;;40.58;32.80;;;;;;;;;;4800659;29;20066;-81
2022/07/31 13:34:45;;;;;;;38.92;30.10;;;;;;;;;;4819662;29;20517;-78
2022/07/31 13:37:12;;;;;;;48.60;34.83;;;;;;;;;;4816745;29;20046;-82
2022/07/31 13:39:38;;;;;;;35.60;28.63;;;;;;;;;;4819505;29;20440;-79
2022/07/31 13:42:04;;;;;;;38.40;29.17;;;;;;;;;;4818435;29;20045;-81
2022/07/31 13:44:32;;;;;;;34.50;27.90;;;;;;;;;;4789928;29;20496;-83
2022/07/31 13:46:58;;;;;;;36.38;29.67;;;;;;;;;;4809136;29;20062;-84
2022/07/31 13:49:30;;;;;;;48.03;33.75;;;;;;;;;;4806226;29;20085;-79
2022/07/31 13:52:04;;;;;;;39.38;31.52;;;;;;;;;;4821333;29;20050;-82
2022/07/31 13:54:33;;;;;;;40.17;32.50;;;;;;;;;;4819103;29;20605;-81
2022/07/31 13:57:00;;;;;;;40.03;31.80;;;;;;;;;;4821061;29;20041;-80
2022/07/31 13:59:28;;;;;;;40.92;32.65;;;;;;;;;;4816554;29;20050;-80
2022/07/31 14:01:54;;;;;;;39.65;31.35;;;;;;;;;;4818891;29;20203;-84
2022/07/31 14:04:26;;;;;;;47.78;33.75;;;;;;;;;;4796537;29;20062;-84
2022/07/31 14:06:52;;;;;;;48.15;35.83;;;;;;;;;;4821192;29;20049;-81
2022/07/31 14:09:19;;;;;;;45.92;33.08;;;;;;;;;;4809414;29;20064;-84
2022/07/31 14:11:45;;;;;;;56.03;37.78;;;;;;;;;;4814922;29;20547;-78
2022/07/31 14:14:11;;;;;;;47.40;32.78;;;;;;;;;;4790503;29;20092;-82
2022/07/31 14:16:37;;;;;;;62.75;36.85;;;;;;;;;;4801416;29;20082;-81
2022/07/31 14:19:03;;;;;;;52.10;35.85;;;;;;;;;;4806878;29;20047;-81
2022/07/31 14:21:29;;;;;;;46.67;32.92;;;;;;;;;;4820791;29;20452;-76
2022/07/31 14:23:56;;;;;;;38.92;29.25;;;;;;;;;;4816359;29;20519;-78
2022/07/31 14:26:22;;;;;;;47.42;31.83;;;;;;;;;;4821199;29;20042;-79
2022/07/31 14:28:48;;;;;;;56.25;34.92;;;;;;;;;;4811326;29;20050;-78
2022/07/31 14:31:15;;;;;;;60.38;37.97;;;;;;;;;;4803980;29;20077;-78
2022/07/31 14:33:41;;;;;;;56.13;37.55;;;;;;;;;;4818598;29;20093;-80
2022/07/31 14:36:08;;;;;;;53.45;33.00;;;;;;;;;;4822235;29;20099;-79
2022/07/31 14:38:34;;;;;;;39.08;27.10;;;;;;;;;;4799821;29;20539;-79
2022/07/31 14:41:02;;;;;;;29.05;22.63;;;;;;;;;;4823961;29;20078;-78
2022/07/31 14:43:31;;;;;;;32.03;23.00;;;;;;;;;;4804089;29;20107;-79
2022/07/31 14:45:57;;;;;;;26.65;21.55;;;;;;;;;;4822135;29;20107;-79
2022/07/31 14:48:23;;;;;;;25.58;19.88;;;;;;;;;;4820255;29;20041;-78
2022/07/31 14:50:51;;;;;;;24.17;19.80;;;;;;;;;;4826367;29;20063;-78
2022/07/31 14:53:17;;;;;;;22.35;16.95;;;;;;;;;;4823839;29;20165;-77